createdAt,value
2018-12-18T00:01:00.860Z,6.60
2018-12-18T00:03:29.542Z,6.60
2018-12-18T00:05:58.205Z,6.60
2018-12-18T00:08:26.843Z,6.70
2018-12-18T00:11:00.732Z,6.70
2018-12-18T00:13:29.506Z,6.70
2018-12-18T00:15:58.130Z,6.70
2018-12-18T00:18:26.843Z,6.70
2018-12-18T00:20:55.549Z,6.70
2018-12-18T00:23:24.259Z,6.70
2018-12-18T00:25:53.066Z,6.70
2018-12-18T00:28:21.682Z,6.80
2018-12-18T00:30:50.381Z,6.80
2018-12-18T00:33:19.134Z,6.70
2018-12-18T00:35:47.776Z,6.80
2018-12-18T00:38:16.876Z,6.80
2018-12-18T00:40:45.525Z,6.80
2018-12-18T00:43:14.130Z,6.80
2018-12-18T00:45:43.132Z,6.80
2018-12-18T00:48:11.834Z,6.80
2018-12-18T00:50:40.585Z,6.80
2018-12-18T00:53:09.362Z,6.80
2018-12-18T00:55:38.001Z,6.80
2018-12-18T00:58:06.609Z,6.80
2018-12-18T01:00:35.300Z,6.80
2018-12-18T01:03:04.353Z,6.80
2018-12-18T01:05:33.027Z,6.80
2018-12-18T01:08:01.667Z,6.80
2018-12-18T01:10:30.353Z,6.80
2018-12-18T01:12:58.984Z,6.80
2018-12-18T01:15:27.896Z,6.80
2018-12-18T01:17:56.598Z,6.80
2018-12-18T01:20:25.264Z,6.80
2018-12-18T01:22:53.928Z,6.80
2018-12-18T01:25:22.610Z,6.80
2018-12-18T01:27:51.256Z,6.80
2018-12-18T01:30:19.927Z,6.80
2018-12-18T01:32:48.602Z,6.80
2018-12-18T01:35:17.217Z,6.80
2018-12-18T01:37:45.857Z,6.80
2018-12-18T01:40:14.808Z,6.80
2018-12-18T01:42:43.515Z,6.80
2018-12-18T01:45:12.231Z,6.80
2018-12-18T01:47:40.893Z,6.80
2018-12-18T01:50:09.705Z,6.90
2018-12-18T01:52:38.364Z,6.80
2018-12-18T01:55:07.563Z,6.80
2018-12-18T01:57:36.264Z,6.80
2018-12-18T02:00:05.243Z,6.80
2018-12-18T02:02:33.892Z,6.80
2018-12-18T02:05:02.523Z,6.80
2018-12-18T02:07:31.195Z,6.80
2018-12-18T02:09:59.845Z,6.80
2018-12-18T02:12:28.471Z,6.80
2018-12-18T02:14:57.124Z,6.80
2018-12-18T02:17:25.911Z,6.80
2018-12-18T02:19:54.563Z,6.80
2018-12-18T02:22:23.152Z,6.80
2018-12-18T02:24:51.823Z,6.80
2018-12-18T02:27:20.535Z,6.70
2018-12-18T02:29:49.106Z,6.70
2018-12-18T02:32:17.777Z,6.70
2018-12-18T02:34:46.374Z,6.70
2018-12-18T02:37:15.019Z,6.70
2018-12-18T02:39:43.601Z,6.70
2018-12-18T02:42:12.231Z,6.70
2018-12-18T02:44:40.871Z,6.70
2018-12-18T02:47:09.510Z,6.70
2018-12-18T02:49:38.158Z,6.70
2018-12-18T02:52:06.952Z,6.70
2018-12-18T02:54:35.588Z,6.80
2018-12-18T02:57:04.391Z,6.70
2018-12-18T02:59:33.084Z,6.70
2018-12-18T03:02:01.752Z,6.80
2018-12-18T03:04:30.378Z,6.70
2018-12-18T03:06:59.019Z,6.80
2018-12-18T03:09:27.665Z,6.80
2018-12-18T03:11:56.406Z,6.80
2018-12-18T03:14:25.087Z,6.80
2018-12-18T03:16:53.971Z,6.80
2018-12-18T03:19:22.623Z,6.90
2018-12-18T03:21:51.467Z,6.90
2018-12-18T03:24:20.066Z,7.00
2018-12-18T03:26:48.759Z,6.90
2018-12-18T03:29:17.435Z,6.90
2018-12-18T03:31:50.122Z,7.00
2018-12-18T03:34:18.793Z,7.00
2018-12-18T03:36:47.431Z,7.00
2018-12-18T03:39:16.223Z,7.00
2018-12-18T03:41:44.900Z,7.00
2018-12-18T03:44:13.532Z,7.00
2018-12-18T03:46:42.130Z,7.00
2018-12-18T03:49:10.808Z,7.00
2018-12-18T03:51:39.500Z,7.10
2018-12-18T03:54:08.135Z,7.10
2018-12-18T03:56:36.829Z,7.10
2018-12-18T03:59:05.632Z,7.10
2018-12-18T04:01:34.358Z,7.20
2018-12-18T04:04:03.062Z,7.20
2018-12-18T04:06:31.737Z,7.20
2018-12-18T04:09:00.350Z,7.20
2018-12-18T04:11:29.021Z,7.20
2018-12-18T04:13:57.669Z,7.30
2018-12-18T04:16:26.414Z,7.30
2018-12-18T04:18:55.041Z,7.30
2018-12-18T04:21:23.693Z,7.30
2018-12-18T04:23:52.419Z,7.30
2018-12-18T04:26:21.100Z,7.30
2018-12-18T04:28:49.954Z,7.30
2018-12-18T04:31:18.636Z,7.30
2018-12-18T04:33:47.291Z,7.30
2018-12-18T04:36:16.289Z,7.30
2018-12-18T04:38:45.043Z,7.30
2018-12-18T04:41:13.706Z,7.30
2018-12-18T04:43:42.393Z,7.30
2018-12-18T04:46:11.038Z,7.30
2018-12-18T04:48:39.706Z,7.40
2018-12-18T04:51:08.322Z,7.30
2018-12-18T04:53:36.966Z,7.40
2018-12-18T04:56:05.690Z,7.40
2018-12-18T04:58:34.423Z,7.40
2018-12-18T05:01:03.133Z,7.40
2018-12-18T05:03:31.882Z,7.40
2018-12-18T05:06:00.513Z,7.40
2018-12-18T05:08:29.136Z,7.40
2018-12-18T05:10:57.765Z,7.40
2018-12-18T05:13:26.429Z,7.50
2018-12-18T05:15:55.208Z,7.50
2018-12-18T05:18:23.981Z,7.40
2018-12-18T05:20:52.986Z,7.40
2018-12-18T05:23:21.635Z,7.30
2018-12-18T05:25:50.338Z,7.40
2018-12-18T05:28:19.043Z,7.40
2018-12-18T05:30:47.733Z,7.40
2018-12-18T05:33:16.504Z,7.30
2018-12-18T05:35:45.188Z,7.40
2018-12-18T05:38:13.853Z,7.40
2018-12-18T05:40:42.661Z,7.40
2018-12-18T05:43:11.304Z,7.40
2018-12-18T05:45:39.953Z,7.40
2018-12-18T05:48:08.775Z,7.40
2018-12-18T05:50:37.529Z,7.40
2018-12-18T05:53:06.400Z,7.40
2018-12-18T05:55:35.106Z,7.40
2018-12-18T05:58:03.948Z,7.40
2018-12-18T06:00:32.619Z,7.40
2018-12-18T06:03:01.268Z,7.40
2018-12-18T06:05:29.883Z,7.40
2018-12-18T06:07:58.572Z,7.30
2018-12-18T06:10:27.278Z,7.30
2018-12-18T06:12:55.909Z,7.30
2018-12-18T06:15:24.561Z,7.30
2018-12-18T06:17:53.284Z,7.30
2018-12-18T06:20:21.904Z,7.30
2018-12-18T06:22:50.566Z,7.30
2018-12-18T06:25:19.277Z,7.30
2018-12-18T06:27:47.989Z,7.30
2018-12-18T06:30:16.701Z,7.30
2018-12-18T06:32:45.374Z,7.30
2018-12-18T06:35:14.064Z,7.30
2018-12-18T06:37:42.725Z,7.30
2018-12-18T06:40:11.416Z,7.30
2018-12-18T06:42:40.062Z,7.30
2018-12-18T06:45:08.771Z,7.20
2018-12-18T06:47:37.491Z,7.20
2018-12-18T06:50:06.320Z,7.20
2018-12-18T06:52:34.969Z,7.20
2018-12-18T06:55:03.745Z,7.20
2018-12-18T06:57:32.470Z,7.20
2018-12-18T07:00:01.130Z,7.20
2018-12-18T07:02:29.779Z,7.20
2018-12-18T07:04:58.512Z,7.20
2018-12-18T07:07:27.162Z,7.20
2018-12-18T07:09:55.895Z,7.20
2018-12-18T07:12:24.552Z,7.20
2018-12-18T07:14:53.174Z,7.20
2018-12-18T07:17:21.878Z,7.20
2018-12-18T07:19:50.559Z,7.20
2018-12-18T07:22:19.244Z,7.20
2018-12-18T07:24:47.985Z,7.30
2018-12-18T07:27:16.652Z,7.30
2018-12-18T07:29:45.315Z,7.30
2018-12-18T07:32:13.976Z,7.30
2018-12-18T07:34:42.741Z,7.30
2018-12-18T07:37:11.449Z,7.30
2018-12-18T07:39:40.139Z,7.30
2018-12-18T07:42:08.798Z,7.30
2018-12-18T07:44:37.534Z,7.30
2018-12-18T07:47:06.231Z,7.40
2018-12-18T07:49:34.905Z,7.30
2018-12-18T07:52:03.567Z,7.30
2018-12-18T07:54:32.274Z,7.40
2018-12-18T07:57:00.945Z,7.40
2018-12-18T07:59:29.624Z,7.40
2018-12-18T08:01:58.287Z,7.40
2018-12-18T08:04:26.927Z,7.30
2018-12-18T08:06:55.576Z,7.40
2018-12-18T08:09:24.289Z,7.30
2018-12-18T08:11:52.982Z,7.40
2018-12-18T08:14:21.702Z,7.40
2018-12-18T08:16:51.183Z,7.40
2018-12-18T08:19:19.883Z,7.40
2018-12-18T08:21:48.594Z,7.40
2018-12-18T08:24:17.282Z,7.40
2018-12-18T08:26:45.910Z,7.40
2018-12-18T08:29:14.706Z,7.40
2018-12-18T08:31:43.385Z,7.40
2018-12-18T08:34:12.149Z,7.40
2018-12-18T08:36:40.839Z,7.50
2018-12-18T08:39:10.256Z,7.50
2018-12-18T08:41:38.924Z,7.50
2018-12-18T08:44:07.589Z,7.50
2018-12-18T08:46:36.267Z,7.50
2018-12-18T08:49:04.970Z,7.50
2018-12-18T08:51:33.636Z,7.40
2018-12-18T08:54:02.260Z,7.40
2018-12-18T08:56:30.946Z,7.50
2018-12-18T08:58:59.653Z,7.50
2018-12-18T09:01:28.370Z,7.40
2018-12-18T09:03:57.002Z,7.40
2018-12-18T09:06:25.725Z,7.40
2018-12-18T09:08:54.390Z,7.50
2018-12-18T09:11:23.113Z,7.50
2018-12-18T09:13:51.828Z,7.50
2018-12-18T09:16:25.787Z,7.50
2018-12-18T09:18:54.631Z,7.50
2018-12-18T09:21:23.360Z,7.50
2018-12-18T09:23:52.516Z,7.50
2018-12-18T09:26:21.303Z,7.60
2018-12-18T09:28:50.065Z,7.60
2018-12-18T09:31:19.042Z,7.50
2018-12-18T09:33:47.727Z,7.60
2018-12-18T09:36:16.396Z,7.50
2018-12-18T09:38:50.350Z,7.60
2018-12-18T09:41:24.261Z,7.60
2018-12-18T09:43:58.695Z,7.60
2018-12-18T09:46:27.511Z,7.70
2018-12-18T09:48:56.141Z,7.80
2018-12-18T09:51:24.911Z,7.80
2018-12-18T09:53:53.680Z,7.80
2018-12-18T09:56:22.356Z,7.90
2018-12-18T09:58:51.210Z,7.90
2018-12-18T10:01:20.432Z,7.90
2018-12-18T10:03:49.080Z,7.90
2018-12-18T10:06:17.723Z,7.90
2018-12-18T10:08:46.362Z,7.90
2018-12-18T10:11:15.016Z,7.90
2018-12-18T10:13:43.671Z,7.90
2018-12-18T10:16:12.304Z,7.90
2018-12-18T10:18:40.966Z,7.90
2018-12-18T10:21:09.739Z,7.90
2018-12-18T10:23:38.421Z,7.90
2018-12-18T10:26:07.138Z,8.00
2018-12-18T10:28:35.837Z,8.00
2018-12-18T10:31:04.537Z,8.00
2018-12-18T10:33:33.196Z,8.00
2018-12-18T10:36:03.081Z,8.00
2018-12-18T10:38:31.974Z,8.00
2018-12-18T10:41:00.608Z,8.10
2018-12-18T10:43:29.354Z,8.10
2018-12-18T10:45:58.108Z,8.10
2018-12-18T10:48:26.760Z,8.10
2018-12-18T10:50:55.464Z,8.10
2018-12-18T10:53:24.183Z,8.10
2018-12-18T10:55:52.851Z,8.10
2018-12-18T10:58:24.157Z,8.10
2018-12-18T11:00:57.603Z,8.10
2018-12-18T11:03:26.350Z,8.10
2018-12-18T11:05:55.022Z,8.10
2018-12-18T11:08:24.711Z,8.10
2018-12-18T11:10:53.456Z,8.10
2018-12-18T11:13:22.286Z,8.10
2018-12-18T11:15:51.010Z,8.20
2018-12-18T11:18:19.788Z,8.20
2018-12-18T11:20:48.522Z,8.20
2018-12-18T11:23:17.229Z,8.20
2018-12-18T11:25:45.955Z,8.20
2018-12-18T11:28:14.689Z,8.20
2018-12-18T11:30:43.490Z,8.20
2018-12-18T11:33:12.149Z,8.20
2018-12-18T11:35:40.813Z,8.20
2018-12-18T11:38:09.484Z,8.30
2018-12-18T11:40:38.182Z,8.30
2018-12-18T11:43:06.857Z,8.30
2018-12-18T11:45:35.561Z,8.30
2018-12-18T11:48:04.248Z,8.30
2018-12-18T11:50:33.031Z,8.40
2018-12-18T11:53:01.655Z,8.40
2018-12-18T11:55:30.514Z,8.50
2018-12-18T11:57:59.162Z,8.50
2018-12-18T12:00:27.861Z,8.60
2018-12-18T12:02:56.596Z,8.60
2018-12-18T12:05:25.289Z,8.70
2018-12-18T12:07:53.926Z,8.70
2018-12-18T12:10:22.614Z,8.70
2018-12-18T12:12:51.259Z,8.70
2018-12-18T12:15:20.096Z,8.70
2018-12-18T12:17:49.066Z,8.70
2018-12-18T12:20:17.814Z,8.70
2018-12-18T12:22:46.483Z,8.70
2018-12-18T12:25:15.164Z,8.70
2018-12-18T12:27:49.111Z,8.80
2018-12-18T12:30:17.793Z,8.80
2018-12-18T12:32:46.445Z,8.80
2018-12-18T12:35:15.104Z,8.90
2018-12-18T12:37:43.778Z,8.90
2018-12-18T12:40:12.420Z,9.00
2018-12-18T12:42:41.108Z,9.00
2018-12-18T12:45:09.825Z,9.10
2018-12-18T12:47:38.452Z,9.10
2018-12-18T12:50:08.092Z,9.10
2018-12-18T12:52:36.819Z,9.20
2018-12-18T12:55:05.880Z,9.30
2018-12-18T12:57:34.535Z,9.50
2018-12-18T13:00:03.363Z,9.60
2018-12-18T13:02:32.041Z,9.60
2018-12-18T13:05:00.747Z,9.70
2018-12-18T13:07:29.457Z,9.70
2018-12-18T13:09:58.181Z,9.80
2018-12-18T13:12:28.969Z,9.80
2018-12-18T13:14:58.075Z,9.80
2018-12-18T13:17:26.821Z,9.80
2018-12-18T13:19:55.557Z,9.90
2018-12-18T13:22:24.253Z,9.90
2018-12-18T13:24:52.911Z,9.90
2018-12-18T13:27:21.599Z,9.90
2018-12-18T13:29:50.600Z,9.80
2018-12-18T13:32:19.354Z,9.80
2018-12-18T13:34:48.214Z,9.80
2018-12-18T13:37:16.931Z,9.80
2018-12-18T13:39:45.618Z,9.80
2018-12-18T13:42:14.337Z,9.80
2018-12-18T13:44:43.029Z,9.80
2018-12-18T13:47:11.681Z,9.70
2018-12-18T13:49:40.413Z,9.70
2018-12-18T13:52:09.087Z,9.70
2018-12-18T13:54:37.776Z,9.60
2018-12-18T13:57:06.513Z,9.60
2018-12-18T13:59:35.194Z,9.50
2018-12-18T14:02:03.869Z,9.50
2018-12-18T14:04:32.572Z,9.40
2018-12-18T14:07:01.285Z,9.40
2018-12-18T14:09:29.989Z,9.30
2018-12-18T14:11:58.756Z,9.20
2018-12-18T14:14:27.450Z,9.20
2018-12-18T14:16:56.166Z,9.10
2018-12-18T14:19:24.902Z,9.10
2018-12-18T14:21:53.640Z,9.00
2018-12-18T14:24:22.347Z,8.90
2018-12-18T14:26:51.348Z,8.90
2018-12-18T14:29:20.170Z,8.90
2018-12-18T14:31:48.867Z,8.80
2018-12-18T14:34:17.583Z,8.80
2018-12-18T14:36:46.259Z,8.80
2018-12-18T14:39:14.936Z,8.70
2018-12-18T14:41:43.632Z,8.60
2018-12-18T14:44:12.279Z,8.60
2018-12-18T14:46:40.957Z,8.50
2018-12-18T14:49:09.663Z,8.50
2018-12-18T14:51:38.656Z,8.50
2018-12-18T14:54:07.337Z,8.40
2018-12-18T14:56:36.067Z,8.30
2018-12-18T14:59:04.752Z,8.30
2018-12-18T15:01:33.437Z,8.20
2018-12-18T15:04:02.112Z,8.20
2018-12-18T15:06:30.761Z,8.10
2018-12-18T15:08:59.390Z,8.10
2018-12-18T15:11:28.139Z,8.00
2018-12-18T15:13:56.791Z,8.00
2018-12-18T15:16:25.463Z,7.90
2018-12-18T15:18:54.160Z,7.90
2018-12-18T15:21:22.867Z,7.80
2018-12-18T15:23:51.512Z,7.80
2018-12-18T15:26:20.411Z,7.80
2018-12-18T15:28:49.137Z,7.70
2018-12-18T15:31:18.221Z,7.70
2018-12-18T15:33:46.988Z,7.70
2018-12-18T15:36:15.816Z,7.70
2018-12-18T15:38:44.549Z,7.60
2018-12-18T15:41:13.261Z,7.60
2018-12-18T15:43:41.965Z,7.60
2018-12-18T15:46:10.643Z,7.60
2018-12-18T15:48:39.362Z,7.60
2018-12-18T15:51:08.094Z,7.50
2018-12-18T15:53:36.746Z,7.60
2018-12-18T15:56:05.441Z,7.50
2018-12-18T15:58:34.117Z,7.50
2018-12-18T16:01:02.803Z,7.50
2018-12-18T16:03:31.483Z,7.50
2018-12-18T16:06:00.161Z,7.50
2018-12-18T16:08:28.805Z,7.50
2018-12-18T16:10:57.588Z,7.50
2018-12-18T16:13:26.304Z,7.50
2018-12-18T16:15:54.986Z,7.40
2018-12-18T16:18:23.742Z,7.40
2018-12-18T16:20:52.401Z,7.40
2018-12-18T16:23:21.102Z,7.40
2018-12-18T16:25:49.812Z,7.40
2018-12-18T16:28:18.534Z,7.40
2018-12-18T16:30:47.200Z,7.30
2018-12-18T16:33:15.912Z,7.30
2018-12-18T16:35:46.299Z,7.30
2018-12-18T16:38:15.332Z,7.30
2018-12-18T16:40:43.992Z,7.30
2018-12-18T16:43:12.675Z,7.30
2018-12-18T16:45:41.379Z,7.30
2018-12-18T16:48:10.079Z,7.30
2018-12-18T16:50:38.748Z,7.30
2018-12-18T16:53:07.431Z,7.30
2018-12-18T16:55:36.222Z,7.20
2018-12-18T16:58:04.880Z,7.20
2018-12-18T17:00:33.607Z,7.20
2018-12-18T17:03:02.251Z,7.20
2018-12-18T17:05:30.997Z,7.20
2018-12-18T17:07:59.697Z,7.20
2018-12-18T17:10:35.144Z,7.20
2018-12-18T17:13:03.837Z,7.20
2018-12-18T17:15:32.478Z,7.20
2018-12-18T17:18:01.227Z,7.20
2018-12-18T17:20:29.880Z,7.20
2018-12-18T17:22:58.525Z,7.10
2018-12-18T17:25:27.338Z,7.20
2018-12-18T17:27:55.977Z,7.10
2018-12-18T17:30:24.722Z,7.10
2018-12-18T17:32:53.431Z,7.10
2018-12-18T17:35:22.137Z,7.10
2018-12-18T17:37:50.810Z,7.10
2018-12-18T17:40:19.587Z,7.10
2018-12-18T17:42:48.300Z,7.10
2018-12-18T17:45:17.024Z,7.10
2018-12-18T17:47:45.806Z,7.10
2018-12-18T17:50:14.587Z,7.00
2018-12-18T17:52:43.350Z,7.00
2018-12-18T17:55:12.092Z,7.00
2018-12-18T17:57:40.777Z,7.00
2018-12-18T18:00:12.789Z,7.00
2018-12-18T18:02:42.091Z,7.00
2018-12-18T18:05:10.756Z,6.90
2018-12-18T18:07:42.889Z,6.90
2018-12-18T18:10:10.292Z,6.90
2018-12-18T18:12:50.713Z,6.90
2018-12-18T18:15:33.647Z,6.90
2018-12-18T18:18:11.122Z,6.80
2018-12-18T18:20:49.211Z,6.80
2018-12-18T18:23:23.495Z,6.80
2018-12-18T18:26:02.945Z,6.80
2018-12-18T18:31:43.517Z,6.70
2018-12-18T18:37:31.924Z,6.60
2018-12-18T18:40:14.521Z,6.60
2018-12-18T18:42:52.304Z,6.50
2018-12-18T18:45:27.797Z,6.50
2018-12-18T18:47:59.220Z,6.50
2018-12-18T18:50:36.898Z,6.50
2018-12-18T18:56:19.597Z,6.50
2018-12-18T18:58:58.137Z,6.40
2018-12-18T19:01:37.318Z,6.30
2018-12-18T19:04:17.987Z,6.40
2018-12-18T19:06:53.593Z,6.40
2018-12-18T19:09:25.402Z,6.30
2018-12-18T19:12:02.526Z,6.30
2018-12-18T19:14:43.124Z,6.30
2018-12-18T19:17:30.440Z,6.30
2018-12-18T19:20:20.253Z,6.30
2018-12-18T19:22:57.087Z,6.30
2018-12-18T19:25:30.876Z,6.30
2018-12-18T19:27:59.685Z,6.30
2018-12-18T19:30:30.117Z,6.30
2018-12-18T19:33:01.472Z,6.30
2018-12-18T19:35:34.090Z,6.30
2018-12-18T19:38:05.505Z,6.40
2018-12-18T19:40:41.392Z,6.40
2018-12-18T19:43:11.027Z,6.40
2018-12-18T19:45:41.816Z,6.40
2018-12-18T19:48:14.006Z,6.40
2018-12-18T19:50:47.633Z,6.40
2018-12-18T19:53:20.927Z,6.40
2018-12-18T19:55:51.410Z,6.40
2018-12-18T19:58:21.842Z,6.30
2018-12-18T20:00:53.806Z,6.30
2018-12-18T20:03:26.187Z,6.30
2018-12-18T20:06:00.136Z,6.20
2018-12-18T20:08:31.033Z,6.20
2018-12-18T20:10:59.938Z,6.20
2018-12-18T20:13:34.206Z,6.20
2018-12-18T20:16:10.704Z,6.20
2018-12-18T20:18:43.665Z,6.10
2018-12-18T20:21:17.526Z,6.10
2018-12-18T20:23:56.378Z,6.20
2018-12-18T20:26:29.792Z,6.20
2018-12-18T20:29:04.889Z,6.20
2018-12-18T20:31:41.957Z,6.20
2018-12-18T20:34:16.674Z,6.20
2018-12-18T20:36:49.217Z,6.20
2018-12-18T20:39:20.804Z,6.20
2018-12-18T20:41:51.465Z,6.10
2018-12-18T20:44:24.652Z,6.20
2018-12-18T20:46:59.727Z,6.10
2018-12-18T20:49:33.592Z,6.10
2018-12-18T20:52:05.911Z,6.10
2018-12-18T20:54:34.841Z,6.10
2018-12-18T20:57:03.553Z,6.10
2018-12-18T20:59:32.287Z,6.10
2018-12-18T21:02:00.978Z,6.20
2018-12-18T21:04:29.761Z,6.20
2018-12-18T21:06:58.912Z,6.20
2018-12-18T21:09:27.728Z,6.20
2018-12-18T21:11:56.390Z,6.20
2018-12-18T21:14:25.127Z,6.20
2018-12-18T21:16:53.784Z,6.20
2018-12-18T21:19:22.533Z,6.20
2018-12-18T21:21:51.268Z,6.20
2018-12-18T21:24:19.954Z,6.20
2018-12-18T21:26:48.674Z,6.30
2018-12-18T21:29:17.333Z,6.20
2018-12-18T21:31:46.104Z,6.20
2018-12-18T21:34:14.799Z,6.30
2018-12-18T21:36:43.625Z,6.30
2018-12-18T21:39:12.332Z,6.30
2018-12-18T21:41:41.157Z,6.30
2018-12-18T21:44:09.848Z,6.30
2018-12-18T21:46:38.497Z,6.30
2018-12-18T21:49:07.124Z,6.30
2018-12-18T21:51:35.830Z,6.20
2018-12-18T21:54:04.476Z,6.20
2018-12-18T21:56:33.135Z,6.10
2018-12-18T21:59:01.791Z,6.10
2018-12-18T22:01:30.423Z,6.10
2018-12-18T22:03:59.082Z,6.20
2018-12-18T22:06:27.820Z,6.10
2018-12-18T22:08:56.475Z,6.10
2018-12-18T22:11:25.124Z,6.10
2018-12-18T22:13:53.815Z,6.10
2018-12-18T22:16:22.391Z,6.10
2018-12-18T22:18:51.076Z,6.10
2018-12-18T22:21:19.676Z,6.10
2018-12-18T22:23:48.315Z,6.10
2018-12-18T22:26:16.944Z,6.10
2018-12-18T22:28:45.575Z,6.10
2018-12-18T22:31:14.224Z,6.10
2018-12-18T22:33:42.841Z,6.20
2018-12-18T22:36:11.500Z,6.20
2018-12-18T22:38:43.533Z,6.20
2018-12-18T22:41:10.826Z,6.20
2018-12-18T22:43:39.475Z,6.20
2018-12-18T22:46:08.380Z,6.20
2018-12-18T22:48:37.815Z,6.20
2018-12-18T22:51:06.449Z,6.20
2018-12-18T22:53:35.082Z,6.20
2018-12-18T22:56:04.236Z,6.20
2018-12-18T22:58:32.927Z,6.20
2018-12-18T23:01:05.333Z,6.20
2018-12-18T23:03:34.071Z,6.20
2018-12-18T23:06:02.702Z,6.20
2018-12-18T23:08:31.571Z,6.30
2018-12-18T23:11:00.294Z,6.30
2018-12-18T23:13:28.892Z,6.30
2018-12-18T23:15:57.560Z,6.30
2018-12-18T23:18:26.241Z,6.30
2018-12-18T23:20:54.845Z,6.30
2018-12-18T23:23:23.459Z,6.20
2018-12-18T23:25:52.153Z,6.20
2018-12-18T23:28:20.748Z,6.20
2018-12-18T23:30:49.335Z,6.20
2018-12-18T23:33:17.956Z,6.20
2018-12-18T23:35:46.624Z,6.20
2018-12-18T23:38:15.474Z,6.20
2018-12-18T23:40:44.162Z,6.20
2018-12-18T23:43:12.784Z,6.30
2018-12-18T23:45:41.429Z,6.30
2018-12-18T23:48:10.073Z,6.40
2018-12-18T23:50:38.735Z,6.40
2018-12-18T23:53:07.352Z,6.40
2018-12-18T23:55:35.995Z,6.40
2018-12-18T23:58:04.599Z,6.40
